sensor_id;sensor_type;location;lat;lon;timestamp;temperature;humidity
16521;DHT22;8373;48.110;11.522;2023-06-04T00:00:02;19.90;52.80
16521;DHT22;8373;48.110;11.522;2023-06-04T00:02:29;19.90;52.80
16521;DHT22;8373;48.110;11.522;2023-06-04T00:04:58;19.80;52.70
16521;DHT22;8373;48.110;11.522;2023-06-04T00:07:25;19.70;52.70
16521;DHT22;8373;48.110;11.522;2023-06-04T00:09:53;19.70;52.50
16521;DHT22;8373;48.110;11.522;2023-06-04T00:12:20;19.70;52.50
16521;DHT22;8373;48.110;11.522;2023-06-04T00:14:47;19.60;52.60
16521;DHT22;8373;48.110;11.522;2023-06-04T00:17:15;19.50;52.80
16521;DHT22;8373;48.110;11.522;2023-06-04T00:19:42;19.50;52.80
16521;DHT22;8373;48.110;11.522;2023-06-04T00:22:10;19.40;53.00
16521;DHT22;8373;48.110;11.522;2023-06-04T00:24:38;19.30;53.10
16521;DHT22;8373;48.110;11.522;2023-06-04T00:27:07;19.20;53.40
16521;DHT22;8373;48.110;11.522;2023-06-04T00:29:34;19.20;52.90
16521;DHT22;8373;48.110;11.522;2023-06-04T00:32:02;19.20;52.90
16521;DHT22;8373;48.110;11.522;2023-06-04T00:34:30;19.10;52.90
16521;DHT22;8373;48.110;11.522;2023-06-04T00:36:57;19.00;52.80
16521;DHT22;8373;48.110;11.522;2023-06-04T00:39:28;19.00;53.00
16521;DHT22;8373;48.110;11.522;2023-06-04T00:41:56;19.00;52.90
16521;DHT22;8373;48.110;11.522;2023-06-04T00:44:23;18.90;53.10
16521;DHT22;8373;48.110;11.522;2023-06-04T00:46:51;18.90;53.10
16521;DHT22;8373;48.110;11.522;2023-06-04T00:49:19;18.90;52.80
16521;DHT22;8373;48.110;11.522;2023-06-04T00:51:46;18.80;52.20
16521;DHT22;8373;48.110;11.522;2023-06-04T00:54:15;18.80;52.40
16521;DHT22;8373;48.110;11.522;2023-06-04T00:56:45;18.70;52.40
16521;DHT22;8373;48.110;11.522;2023-06-04T00:59:12;18.60;52.10
16521;DHT22;8373;48.110;11.522;2023-06-04T01:02:00;18.60;52.10
16521;DHT22;8373;48.110;11.522;2023-06-04T01:04:33;18.50;52.20
16521;DHT22;8373;48.110;11.522;2023-06-04T01:07:04;18.50;52.30
16521;DHT22;8373;48.110;11.522;2023-06-04T01:09:32;18.40;52.40
16521;DHT22;8373;48.110;11.522;2023-06-04T01:12:03;18.40;52.20
16521;DHT22;8373;48.110;11.522;2023-06-04T01:14:31;18.40;52.20
16521;DHT22;8373;48.110;11.522;2023-06-04T01:17:04;18.30;52.20
16521;DHT22;8373;48.110;11.522;2023-06-04T01:19:55;18.30;52.40
16521;DHT22;8373;48.110;11.522;2023-06-04T01:22:33;18.30;52.70
16521;DHT22;8373;48.110;11.522;2023-06-04T01:25:04;18.30;52.90
16521;DHT22;8373;48.110;11.522;2023-06-04T01:27:35;18.30;52.70
16521;DHT22;8373;48.110;11.522;2023-06-04T01:30:03;18.30;52.90
16521;DHT22;8373;48.110;11.522;2023-06-04T01:32:31;18.40;53.00
16521;DHT22;8373;48.110;11.522;2023-06-04T01:34:59;18.40;53.00
16521;DHT22;8373;48.110;11.522;2023-06-04T01:37:27;18.50;52.60
16521;DHT22;8373;48.110;11.522;2023-06-04T01:39:54;18.50;52.20
16521;DHT22;8373;48.110;11.522;2023-06-04T01:42:21;18.50;52.20
16521;DHT22;8373;48.110;11.522;2023-06-04T01:44:50;18.50;52.40
16521;DHT22;8373;48.110;11.522;2023-06-04T01:47:17;18.50;52.40
16521;DHT22;8373;48.110;11.522;2023-06-04T01:49:45;18.50;52.40
16521;DHT22;8373;48.110;11.522;2023-06-04T01:52:12;18.50;52.20
16521;DHT22;8373;48.110;11.522;2023-06-04T01:54:40;18.50;51.70
16521;DHT22;8373;48.110;11.522;2023-06-04T01:57:08;18.40;51.60
16521;DHT22;8373;48.110;11.522;2023-06-04T01:59:36;18.40;51.90
16521;DHT22;8373;48.110;11.522;2023-06-04T02:02:06;18.40;52.10
16521;DHT22;8373;48.110;11.522;2023-06-04T02:04:33;18.40;52.50
16521;DHT22;8373;48.110;11.522;2023-06-04T02:07:02;18.40;52.40
16521;DHT22;8373;48.110;11.522;2023-06-04T02:09:29;18.30;52.10
16521;DHT22;8373;48.110;11.522;2023-06-04T02:11:57;18.30;52.20
16521;DHT22;8373;48.110;11.522;2023-06-04T02:14:24;18.30;51.90
16521;DHT22;8373;48.110;11.522;2023-06-04T02:16:51;18.30;52.10
16521;DHT22;8373;48.110;11.522;2023-06-04T02:19:21;18.30;52.20
16521;DHT22;8373;48.110;11.522;2023-06-04T02:21:48;18.40;52.90
16521;DHT22;8373;48.110;11.522;2023-06-04T02:24:15;18.40;52.20
16521;DHT22;8373;48.110;11.522;2023-06-04T02:26:42;18.40;52.20
16521;DHT22;8373;48.110;11.522;2023-06-04T02:32:32;18.50;51.80
16521;DHT22;8373;48.110;11.522;2023-06-04T02:35:03;18.40;51.80
16521;DHT22;8373;48.110;11.522;2023-06-04T02:37:31;18.40;51.80
16521;DHT22;8373;48.110;11.522;2023-06-04T02:39:58;18.40;51.50
16521;DHT22;8373;48.110;11.522;2023-06-04T02:42:25;18.30;51.60
16521;DHT22;8373;48.110;11.522;2023-06-04T02:44:53;18.20;52.20
16521;DHT22;8373;48.110;11.522;2023-06-04T02:47:20;18.20;52.80
16521;DHT22;8373;48.110;11.522;2023-06-04T02:49:47;18.20;53.10
16521;DHT22;8373;48.110;11.522;2023-06-04T02:52:16;18.20;53.00
16521;DHT22;8373;48.110;11.522;2023-06-04T02:54:43;18.20;53.70
16521;DHT22;8373;48.110;11.522;2023-06-04T02:57:10;18.20;52.90
16521;DHT22;8373;48.110;11.522;2023-06-04T02:59:38;18.20;53.10
16521;DHT22;8373;48.110;11.522;2023-06-04T03:02:05;18.20;53.40
16521;DHT22;8373;48.110;11.522;2023-06-04T03:04:33;18.20;53.40
16521;DHT22;8373;48.110;11.522;2023-06-04T03:07:01;18.10;53.40
16521;DHT22;8373;48.110;11.522;2023-06-04T03:09:30;18.10;53.60
16521;DHT22;8373;48.110;11.522;2023-06-04T03:12:00;18.10;53.90
16521;DHT22;8373;48.110;11.522;2023-06-04T03:14:28;18.10;54.10
16521;DHT22;8373;48.110;11.522;2023-06-04T03:16:58;18.10;54.00
16521;DHT22;8373;48.110;11.522;2023-06-04T03:19:33;18.10;53.90
16521;DHT22;8373;48.110;11.522;2023-06-04T03:22:00;18.10;54.10
16521;DHT22;8373;48.110;11.522;2023-06-04T03:24:33;18.00;54.10
16521;DHT22;8373;48.110;11.522;2023-06-04T03:27:01;18.00;54.40
16521;DHT22;8373;48.110;11.522;2023-06-04T03:29:28;18.00;54.60
16521;DHT22;8373;48.110;11.522;2023-06-04T03:31:56;18.00;54.70
16521;DHT22;8373;48.110;11.522;2023-06-04T03:34:23;17.90;54.80
16521;DHT22;8373;48.110;11.522;2023-06-04T03:36:51;17.90;54.90
16521;DHT22;8373;48.110;11.522;2023-06-04T03:39:18;17.80;54.90
16521;DHT22;8373;48.110;11.522;2023-06-04T03:41:47;17.80;54.90
16521;DHT22;8373;48.110;11.522;2023-06-04T03:44:14;17.70;54.70
16521;DHT22;8373;48.110;11.522;2023-06-04T03:46:42;17.60;54.60
16521;DHT22;8373;48.110;11.522;2023-06-04T03:49:09;17.60;54.80
16521;DHT22;8373;48.110;11.522;2023-06-04T03:51:37;17.60;54.80
16521;DHT22;8373;48.110;11.522;2023-06-04T03:54:04;17.50;55.20
16521;DHT22;8373;48.110;11.522;2023-06-04T03:56:31;17.60;55.30
16521;DHT22;8373;48.110;11.522;2023-06-04T03:59:00;17.70;55.30
16521;DHT22;8373;48.110;11.522;2023-06-04T04:01:27;17.70;55.30
16521;DHT22;8373;48.110;11.522;2023-06-04T04:04:23;17.80;55.30
16521;DHT22;8373;48.110;11.522;2023-06-04T04:28:51;17.70;54.80
16521;DHT22;8373;48.110;11.522;2023-06-04T04:32:10;17.60;54.60
16521;DHT22;8373;48.110;11.522;2023-06-04T04:35:01;17.50;54.40
16521;DHT22;8373;48.110;11.522;2023-06-04T04:37:37;17.40;54.60
16521;DHT22;8373;48.110;11.522;2023-06-04T04:40:18;17.40;54.80
16521;DHT22;8373;48.110;11.522;2023-06-04T04:42:56;17.40;55.40
16521;DHT22;8373;48.110;11.522;2023-06-04T04:45:27;17.40;54.40
16521;DHT22;8373;48.110;11.522;2023-06-04T04:48:17;17.40;54.60
16521;DHT22;8373;48.110;11.522;2023-06-04T04:50:59;17.40;54.80
16521;DHT22;8373;48.110;11.522;2023-06-04T04:53:34;17.40;54.90
16521;DHT22;8373;48.110;11.522;2023-06-04T04:56:16;17.40;54.80
16521;DHT22;8373;48.110;11.522;2023-06-04T04:58:52;17.50;54.40
16521;DHT22;8373;48.110;11.522;2023-06-04T05:01:38;17.50;54.60
16521;DHT22;8373;48.110;11.522;2023-06-04T05:04:35;17.50;54.30
16521;DHT22;8373;48.110;11.522;2023-06-04T05:11:28;17.60;54.60
16521;DHT22;8373;48.110;11.522;2023-06-04T05:14:38;17.60;54.10
16521;DHT22;8373;48.110;11.522;2023-06-04T05:17:29;17.60;53.90
16521;DHT22;8373;48.110;11.522;2023-06-04T05:20:33;17.70;53.10
16521;DHT22;8373;48.110;11.522;2023-06-04T05:26:46;17.70;52.50
16521;DHT22;8373;48.110;11.522;2023-06-04T05:48:59;17.80;52.70
16521;DHT22;8373;48.110;11.522;2023-06-04T05:55:10;17.90;52.90
16521;DHT22;8373;48.110;11.522;2023-06-04T06:01:54;18.20;51.60
16521;DHT22;8373;48.110;11.522;2023-06-04T06:05:21;18.20;51.50
16521;DHT22;8373;48.110;11.522;2023-06-04T06:08:23;18.30;51.50
16521;DHT22;8373;48.110;11.522;2023-06-04T06:11:10;18.50;51.40
16521;DHT22;8373;48.110;11.522;2023-06-04T06:17:04;18.70;50.70
16521;DHT22;8373;48.110;11.522;2023-06-04T06:19:33;18.90;50.70
16521;DHT22;8373;48.110;11.522;2023-06-04T06:22:09;19.00;50.00
16521;DHT22;8373;48.110;11.522;2023-06-04T06:24:41;19.20;50.20
16521;DHT22;8373;48.110;11.522;2023-06-04T06:27:11;19.40;50.00
16521;DHT22;8373;48.110;11.522;2023-06-04T06:29:41;19.50;49.40
16521;DHT22;8373;48.110;11.522;2023-06-04T06:32:11;19.60;49.10
16521;DHT22;8373;48.110;11.522;2023-06-04T06:34:40;19.60;49.10
16521;DHT22;8373;48.110;11.522;2023-06-04T06:37:09;19.80;49.50
16521;DHT22;8373;48.110;11.522;2023-06-04T06:39:37;20.00;49.60
16521;DHT22;8373;48.110;11.522;2023-06-04T06:42:09;20.10;49.30
16521;DHT22;8373;48.110;11.522;2023-06-04T06:45:20;20.30;48.80
16521;DHT22;8373;48.110;11.522;2023-06-04T06:48:15;20.40;48.60
16521;DHT22;8373;48.110;11.522;2023-06-04T06:50:46;20.50;48.60
16521;DHT22;8373;48.110;11.522;2023-06-04T06:53:17;20.50;48.60
16521;DHT22;8373;48.110;11.522;2023-06-04T06:55:49;20.60;48.30
16521;DHT22;8373;48.110;11.522;2023-06-04T06:58:26;20.70;48.30
16521;DHT22;8373;48.110;11.522;2023-06-04T07:01:02;20.80;48.50
16521;DHT22;8373;48.110;11.522;2023-06-04T07:03:40;20.90;47.70
16521;DHT22;8373;48.110;11.522;2023-06-04T07:06:37;21.00;48.40
16521;DHT22;8373;48.110;11.522;2023-06-04T07:13:32;21.20;47.40
16521;DHT22;8373;48.110;11.522;2023-06-04T07:16:46;21.30;47.30
16521;DHT22;8373;48.110;11.522;2023-06-04T07:19:48;21.30;46.70
16521;DHT22;8373;48.110;11.522;2023-06-04T07:22:29;21.40;47.10
16521;DHT22;8373;48.110;11.522;2023-06-04T07:25:02;21.50;46.80
16521;DHT22;8373;48.110;11.522;2023-06-04T07:27:34;21.50;46.80
16521;DHT22;8373;48.110;11.522;2023-06-04T07:30:11;21.60;46.70
16521;DHT22;8373;48.110;11.522;2023-06-04T07:32:49;21.70;45.80
16521;DHT22;8373;48.110;11.522;2023-06-04T07:35:28;21.70;45.50
16521;DHT22;8373;48.110;11.522;2023-06-04T07:38:06;21.70;46.20
16521;DHT22;8373;48.110;11.522;2023-06-04T07:40:40;21.80;46.70
16521;DHT22;8373;48.110;11.522;2023-06-04T07:43:15;21.90;46.20
16521;DHT22;8373;48.110;11.522;2023-06-04T07:45:44;22.00;45.40
16521;DHT22;8373;48.110;11.522;2023-06-04T07:48:35;22.00;45.50
16521;DHT22;8373;48.110;11.522;2023-06-04T07:51:35;22.00;45.90
16521;DHT22;8373;48.110;11.522;2023-06-04T07:54:17;22.10;46.10
16521;DHT22;8373;48.110;11.522;2023-06-04T07:57:03;22.20;46.00
16521;DHT22;8373;48.110;11.522;2023-06-04T07:59:40;22.30;45.90
16521;DHT22;8373;48.110;11.522;2023-06-04T08:02:28;22.40;46.50
16521;DHT22;8373;48.110;11.522;2023-06-04T08:05:16;22.60;46.40
16521;DHT22;8373;48.110;11.522;2023-06-04T08:08:06;22.80;45.50
16521;DHT22;8373;48.110;11.522;2023-06-04T08:10:56;22.90;46.50
16521;DHT22;8373;48.110;11.522;2023-06-04T08:13:40;23.00;45.00
16521;DHT22;8373;48.110;11.522;2023-06-04T08:16:33;23.10;45.20
16521;DHT22;8373;48.110;11.522;2023-06-04T08:19:19;23.10;45.10
16521;DHT22;8373;48.110;11.522;2023-06-04T08:22:00;23.20;45.20
16521;DHT22;8373;48.110;11.522;2023-06-04T08:24:34;23.30;44.60
16521;DHT22;8373;48.110;11.522;2023-06-04T08:27:13;23.30;44.70
16521;DHT22;8373;48.110;11.522;2023-06-04T08:29:52;23.40;44.80
16521;DHT22;8373;48.110;11.522;2023-06-04T08:32:28;23.40;44.20
16521;DHT22;8373;48.110;11.522;2023-06-04T08:35:01;23.40;43.70
16521;DHT22;8373;48.110;11.522;2023-06-04T08:37:33;23.40;44.10
16521;DHT22;8373;48.110;11.522;2023-06-04T08:40:11;23.40;43.90
16521;DHT22;8373;48.110;11.522;2023-06-04T08:42:55;23.40;44.20
16521;DHT22;8373;48.110;11.522;2023-06-04T08:45:41;23.40;44.30
16521;DHT22;8373;48.110;11.522;2023-06-04T08:48:29;23.40;44.20
16521;DHT22;8373;48.110;11.522;2023-06-04T08:51:15;23.40;44.00
16521;DHT22;8373;48.110;11.522;2023-06-04T08:53:52;23.40;44.90
16521;DHT22;8373;48.110;11.522;2023-06-04T08:56:33;23.50;43.70
16521;DHT22;8373;48.110;11.522;2023-06-04T08:59:11;23.40;43.70
16521;DHT22;8373;48.110;11.522;2023-06-04T09:01:55;23.50;44.80
16521;DHT22;8373;48.110;11.522;2023-06-04T09:04:30;23.50;42.60
16521;DHT22;8373;48.110;11.522;2023-06-04T09:07:12;23.40;42.90
16521;DHT22;8373;48.110;11.522;2023-06-04T09:09:47;23.50;43.60
16521;DHT22;8373;48.110;11.522;2023-06-04T09:12:25;23.50;43.70
16521;DHT22;8373;48.110;11.522;2023-06-04T09:15:02;23.60;44.00
16521;DHT22;8373;48.110;11.522;2023-06-04T09:17:41;23.60;43.20
16521;DHT22;8373;48.110;11.522;2023-06-04T09:20:36;23.60;43.80
16521;DHT22;8373;48.110;11.522;2023-06-04T09:23:57;23.70;43.30
16521;DHT22;8373;48.110;11.522;2023-06-04T09:26:35;23.70;43.50
16521;DHT22;8373;48.110;11.522;2023-06-04T09:29:12;23.70;43.50
16521;DHT22;8373;48.110;11.522;2023-06-04T09:31:44;23.70;42.50
16521;DHT22;8373;48.110;11.522;2023-06-04T09:34:45;23.70;42.90
16521;DHT22;8373;48.110;11.522;2023-06-04T09:37:57;23.70;42.40
16521;DHT22;8373;48.110;11.522;2023-06-04T09:44:46;23.80;43.30
16521;DHT22;8373;48.110;11.522;2023-06-04T09:47:26;23.80;43.30
16521;DHT22;8373;48.110;11.522;2023-06-04T09:50:11;23.90;42.30
16521;DHT22;8373;48.110;11.522;2023-06-04T09:52:57;23.90;41.30
16521;DHT22;8373;48.110;11.522;2023-06-04T09:55:36;23.90;41.80
16521;DHT22;8373;48.110;11.522;2023-06-04T09:58:20;24.00;42.20
16521;DHT22;8373;48.110;11.522;2023-06-04T10:01:40;24.00;41.20
16521;DHT22;8373;48.110;11.522;2023-06-04T10:04:48;24.00;40.20
16521;DHT22;8373;48.110;11.522;2023-06-04T10:07:45;24.00;40.80
16521;DHT22;8373;48.110;11.522;2023-06-04T10:10:23;23.90;41.10
16521;DHT22;8373;48.110;11.522;2023-06-04T10:13:17;23.80;41.60
16521;DHT22;8373;48.110;11.522;2023-06-04T10:15:54;23.70;41.50
16521;DHT22;8373;48.110;11.522;2023-06-04T10:18:39;23.80;41.20
16521;DHT22;8373;48.110;11.522;2023-06-04T10:21:16;23.80;41.20
16521;DHT22;8373;48.110;11.522;2023-06-04T10:23:59;24.00;41.40
16521;DHT22;8373;48.110;11.522;2023-06-04T10:26:39;24.20;41.00
16521;DHT22;8373;48.110;11.522;2023-06-04T10:29:19;24.30;41.20
16521;DHT22;8373;48.110;11.522;2023-06-04T10:32:12;24.40;40.70
16521;DHT22;8373;48.110;11.522;2023-06-04T10:34:53;24.40;40.50
16521;DHT22;8373;48.110;11.522;2023-06-04T10:37:35;24.40;39.80
16521;DHT22;8373;48.110;11.522;2023-06-04T10:40:19;24.40;39.80
16521;DHT22;8373;48.110;11.522;2023-06-04T10:42:55;24.50;39.90
16521;DHT22;8373;48.110;11.522;2023-06-04T10:45:34;24.40;39.50
16521;DHT22;8373;48.110;11.522;2023-06-04T10:48:15;24.40;40.00
16521;DHT22;8373;48.110;11.522;2023-06-04T10:51:07;24.40;40.50
16521;DHT22;8373;48.110;11.522;2023-06-04T10:54:08;24.50;39.90
16521;DHT22;8373;48.110;11.522;2023-06-04T10:57:21;24.60;39.90
16521;DHT22;8373;48.110;11.522;2023-06-04T11:00:42;24.70;39.60
16521;DHT22;8373;48.110;11.522;2023-06-04T11:03:35;24.80;39.90
16521;DHT22;8373;48.110;11.522;2023-06-04T11:06:41;24.90;40.20
16521;DHT22;8373;48.110;11.522;2023-06-04T11:09:18;25.00;38.90
16521;DHT22;8373;48.110;11.522;2023-06-04T11:12:06;25.00;39.00
16521;DHT22;8373;48.110;11.522;2023-06-04T11:15:17;25.00;38.50
16521;DHT22;8373;48.110;11.522;2023-06-04T11:18:13;25.00;38.10
16521;DHT22;8373;48.110;11.522;2023-06-04T11:21:09;25.00;38.30
16521;DHT22;8373;48.110;11.522;2023-06-04T11:24:17;25.00;39.10
16521;DHT22;8373;48.110;11.522;2023-06-04T11:27:24;25.00;38.80
16521;DHT22;8373;48.110;11.522;2023-06-04T11:30:29;25.00;39.60
16521;DHT22;8373;48.110;11.522;2023-06-04T11:33:40;25.10;38.80
16521;DHT22;8373;48.110;11.522;2023-06-04T11:36:53;25.20;38.50
16521;DHT22;8373;48.110;11.522;2023-06-04T11:39:44;25.30;38.80
16521;DHT22;8373;48.110;11.522;2023-06-04T11:42:39;25.30;38.50
16521;DHT22;8373;48.110;11.522;2023-06-04T11:45:39;25.20;37.70
16521;DHT22;8373;48.110;11.522;2023-06-04T11:48:27;25.30;38.80
16521;DHT22;8373;48.110;11.522;2023-06-04T11:51:29;25.40;37.90
16521;DHT22;8373;48.110;11.522;2023-06-04T11:54:02;25.30;37.20
16521;DHT22;8373;48.110;11.522;2023-06-04T11:56:50;25.30;37.40
16521;DHT22;8373;48.110;11.522;2023-06-04T11:59:42;25.20;38.20
16521;DHT22;8373;48.110;11.522;2023-06-04T12:03:09;25.20;38.50
16521;DHT22;8373;48.110;11.522;2023-06-04T12:05:56;25.30;38.00
16521;DHT22;8373;48.110;11.522;2023-06-04T12:08:48;25.40;37.80
16521;DHT22;8373;48.110;11.522;2023-06-04T12:11:47;25.50;37.50
16521;DHT22;8373;48.110;11.522;2023-06-04T12:14:41;25.60;37.50
16521;DHT22;8373;48.110;11.522;2023-06-04T12:17:26;25.60;37.30
16521;DHT22;8373;48.110;11.522;2023-06-04T12:20:18;25.80;37.40
16521;DHT22;8373;48.110;11.522;2023-06-04T12:23:00;25.80;37.40
16521;DHT22;8373;48.110;11.522;2023-06-04T12:25:40;25.90;37.10
16521;DHT22;8373;48.110;11.522;2023-06-04T12:28:22;25.90;37.00
16521;DHT22;8373;48.110;11.522;2023-06-04T12:31:02;25.80;36.60
16521;DHT22;8373;48.110;11.522;2023-06-04T12:33:41;25.80;37.10
16521;DHT22;8373;48.110;11.522;2023-06-04T12:36:30;26.10;36.80
16521;DHT22;8373;48.110;11.522;2023-06-04T12:39:09;26.30;36.40
16521;DHT22;8373;48.110;11.522;2023-06-04T12:41:47;26.30;36.40
16521;DHT22;8373;48.110;11.522;2023-06-04T12:44:26;26.40;35.70
16521;DHT22;8373;48.110;11.522;2023-06-04T12:47:10;26.40;35.40
16521;DHT22;8373;48.110;11.522;2023-06-04T12:49:51;26.40;35.70
16521;DHT22;8373;48.110;11.522;2023-06-04T12:52:39;26.40;35.40
16521;DHT22;8373;48.110;11.522;2023-06-04T12:55:17;26.50;35.30
16521;DHT22;8373;48.110;11.522;2023-06-04T12:57:54;26.40;35.00
16521;DHT22;8373;48.110;11.522;2023-06-04T13:00:36;26.40;35.10
16521;DHT22;8373;48.110;11.522;2023-06-04T13:03:17;26.20;35.30
16521;DHT22;8373;48.110;11.522;2023-06-04T13:05:56;26.00;35.10
16521;DHT22;8373;48.110;11.522;2023-06-04T13:08:45;25.90;35.20
16521;DHT22;8373;48.110;11.522;2023-06-04T13:11:28;25.90;35.50
16521;DHT22;8373;48.110;11.522;2023-06-04T13:14:11;25.90;35.30
16521;DHT22;8373;48.110;11.522;2023-06-04T13:16:54;25.90;35.80
16521;DHT22;8373;48.110;11.522;2023-06-04T13:19:37;26.10;35.60
16521;DHT22;8373;48.110;11.522;2023-06-04T13:22:16;26.10;34.50
16521;DHT22;8373;48.110;11.522;2023-06-04T13:25:06;26.00;34.30
16521;DHT22;8373;48.110;11.522;2023-06-04T13:27:49;25.80;34.00
16521;DHT22;8373;48.110;11.522;2023-06-04T13:30:34;25.80;34.20
16521;DHT22;8373;48.110;11.522;2023-06-04T13:33:15;25.70;33.90
16521;DHT22;8373;48.110;11.522;2023-06-04T13:36:05;25.80;34.40
16521;DHT22;8373;48.110;11.522;2023-06-04T13:38:45;25.80;33.80
16521;DHT22;8373;48.110;11.522;2023-06-04T13:41:26;25.80;33.50
16521;DHT22;8373;48.110;11.522;2023-06-04T13:44:15;25.70;33.60
16521;DHT22;8373;48.110;11.522;2023-06-04T13:47:01;25.60;33.40
16521;DHT22;8373;48.110;11.522;2023-06-04T14:03:24;25.50;34.40
16521;DHT22;8373;48.110;11.522;2023-06-04T14:06:04;25.50;34.50
16521;DHT22;8373;48.110;11.522;2023-06-04T14:08:38;25.60;33.00
16521;DHT22;8373;48.110;11.522;2023-06-04T14:11:16;25.60;32.60
16521;DHT22;8373;48.110;11.522;2023-06-04T14:14:08;25.70;33.50
16521;DHT22;8373;48.110;11.522;2023-06-04T14:17:19;25.80;32.50
16521;DHT22;8373;48.110;11.522;2023-06-04T14:20:24;25.80;33.00
16521;DHT22;8373;48.110;11.522;2023-06-04T14:23:44;25.80;33.50
16521;DHT22;8373;48.110;11.522;2023-06-04T14:26:48;25.80;33.60
16521;DHT22;8373;48.110;11.522;2023-06-04T14:29:47;25.70;33.90
16521;DHT22;8373;48.110;11.522;2023-06-04T14:32:48;25.40;33.70
16521;DHT22;8373;48.110;11.522;2023-06-04T14:39:09;25.10;34.20
16521;DHT22;8373;48.110;11.522;2023-06-04T14:42:11;25.10;34.80
16521;DHT22;8373;48.110;11.522;2023-06-04T14:45:03;25.10;34.50
16521;DHT22;8373;48.110;11.522;2023-06-04T14:47:50;25.10;34.30
16521;DHT22;8373;48.110;11.522;2023-06-04T14:54:37;25.20;34.60
16521;DHT22;8373;48.110;11.522;2023-06-04T14:58:26;25.10;34.90
16521;DHT22;8373;48.110;11.522;2023-06-04T15:01:26;25.30;35.00
16521;DHT22;8373;48.110;11.522;2023-06-04T15:14:46;25.30;35.10
16521;DHT22;8373;48.110;11.522;2023-06-04T15:17:26;25.30;35.30
16521;DHT22;8373;48.110;11.522;2023-06-04T15:20:29;25.30;35.70
16521;DHT22;8373;48.110;11.522;2023-06-04T15:23:58;25.30;36.10
16521;DHT22;8373;48.110;11.522;2023-06-04T15:26:52;25.40;36.60
16521;DHT22;8373;48.110;11.522;2023-06-04T15:33:39;25.40;35.10
16521;DHT22;8373;48.110;11.522;2023-06-04T15:36:20;25.50;35.50
16521;DHT22;8373;48.110;11.522;2023-06-04T15:39:16;25.50;35.50
16521;DHT22;8373;48.110;11.522;2023-06-04T15:43:05;25.40;35.50
16521;DHT22;8373;48.110;11.522;2023-06-04T15:49:13;25.30;35.40
16521;DHT22;8373;48.110;11.522;2023-06-04T15:51:54;25.30;35.50
16521;DHT22;8373;48.110;11.522;2023-06-04T15:54:50;25.20;35.70
16521;DHT22;8373;48.110;11.522;2023-06-04T15:57:22;25.10;35.60
16521;DHT22;8373;48.110;11.522;2023-06-04T15:59:53;25.10;35.60
16521;DHT22;8373;48.110;11.522;2023-06-04T16:02:23;25.10;35.80
16521;DHT22;8373;48.110;11.522;2023-06-04T16:04:56;25.00;35.40
16521;DHT22;8373;48.110;11.522;2023-06-04T16:07:28;25.00;36.10
16521;DHT22;8373;48.110;11.522;2023-06-04T16:10:00;25.00;36.20
16521;DHT22;8373;48.110;11.522;2023-06-04T16:12:33;24.90;36.30
16521;DHT22;8373;48.110;11.522;2023-06-04T16:15:12;24.90;36.40
16521;DHT22;8373;48.110;11.522;2023-06-04T16:17:55;24.90;36.70
16521;DHT22;8373;48.110;11.522;2023-06-04T16:20:36;24.90;36.70
16521;DHT22;8373;48.110;11.522;2023-06-04T16:23:08;24.80;36.60
16521;DHT22;8373;48.110;11.522;2023-06-04T16:25:38;24.80;36.70
16521;DHT22;8373;48.110;11.522;2023-06-04T16:28:12;24.80;36.10
16521;DHT22;8373;48.110;11.522;2023-06-04T16:30:51;24.80;36.50
16521;DHT22;8373;48.110;11.522;2023-06-04T16:33:33;24.70;36.70
16521;DHT22;8373;48.110;11.522;2023-06-04T16:36:15;24.70;36.70
16521;DHT22;8373;48.110;11.522;2023-06-04T16:38:51;24.80;36.20
16521;DHT22;8373;48.110;11.522;2023-06-04T16:41:36;24.70;36.90
16521;DHT22;8373;48.110;11.522;2023-06-04T16:44:12;24.70;36.60
16521;DHT22;8373;48.110;11.522;2023-06-04T16:46:51;24.70;35.90
16521;DHT22;8373;48.110;11.522;2023-06-04T16:49:31;24.60;36.40
16521;DHT22;8373;48.110;11.522;2023-06-04T16:52:09;24.60;36.60
16521;DHT22;8373;48.110;11.522;2023-06-04T16:54:49;24.60;36.60
16521;DHT22;8373;48.110;11.522;2023-06-04T16:57:23;24.40;36.60
16521;DHT22;8373;48.110;11.522;2023-06-04T16:59:57;24.40;37.00
16521;DHT22;8373;48.110;11.522;2023-06-04T17:02:36;24.40;36.90
16521;DHT22;8373;48.110;11.522;2023-06-04T17:05:11;24.40;37.10
16521;DHT22;8373;48.110;11.522;2023-06-04T17:07:47;24.40;36.90
16521;DHT22;8373;48.110;11.522;2023-06-04T17:10:16;24.40;36.60
16521;DHT22;8373;48.110;11.522;2023-06-04T17:12:47;24.30;36.50
16521;DHT22;8373;48.110;11.522;2023-06-04T17:15:16;24.40;36.70
16521;DHT22;8373;48.110;11.522;2023-06-04T17:17:45;24.40;36.80
16521;DHT22;8373;48.110;11.522;2023-06-04T17:20:15;24.40;36.70
16521;DHT22;8373;48.110;11.522;2023-06-04T17:22:52;24.40;36.40
16521;DHT22;8373;48.110;11.522;2023-06-04T17:25:25;24.40;36.40
16521;DHT22;8373;48.110;11.522;2023-06-04T17:28:02;24.40;36.10
16521;DHT22;8373;48.110;11.522;2023-06-04T17:30:36;24.30;35.90
16521;DHT22;8373;48.110;11.522;2023-06-04T17:33:13;24.20;36.00
16521;DHT22;8373;48.110;11.522;2023-06-04T17:35:43;24.20;36.10
16521;DHT22;8373;48.110;11.522;2023-06-04T17:38:12;24.20;36.00
16521;DHT22;8373;48.110;11.522;2023-06-04T17:40:40;24.10;35.70
16521;DHT22;8373;48.110;11.522;2023-06-04T17:43:10;24.00;36.60
16521;DHT22;8373;48.110;11.522;2023-06-04T17:45:40;23.90;35.90
16521;DHT22;8373;48.110;11.522;2023-06-04T17:48:10;23.90;36.50
16521;DHT22;8373;48.110;11.522;2023-06-04T17:50:40;23.90;36.60
16521;DHT22;8373;48.110;11.522;2023-06-04T17:53:12;23.90;36.90
16521;DHT22;8373;48.110;11.522;2023-06-04T17:55:44;23.80;37.00
16521;DHT22;8373;48.110;11.522;2023-06-04T17:58:22;23.90;37.30
16521;DHT22;8373;48.110;11.522;2023-06-04T18:00:56;23.90;37.10
16521;DHT22;8373;48.110;11.522;2023-06-04T18:03:25;23.80;36.90
16521;DHT22;8373;48.110;11.522;2023-06-04T18:05:56;23.80;37.00
16521;DHT22;8373;48.110;11.522;2023-06-04T18:08:28;23.70;36.60
16521;DHT22;8373;48.110;11.522;2023-06-04T18:11:09;23.70;37.00
16521;DHT22;8373;48.110;11.522;2023-06-04T18:13:39;23.60;36.70
16521;DHT22;8373;48.110;11.522;2023-06-04T18:16:10;23.50;36.90
16521;DHT22;8373;48.110;11.522;2023-06-04T18:18:42;23.50;37.10
16521;DHT22;8373;48.110;11.522;2023-06-04T18:21:14;23.50;37.10
16521;DHT22;8373;48.110;11.522;2023-06-04T18:23:46;23.40;37.20
16521;DHT22;8373;48.110;11.522;2023-06-04T18:26:19;23.40;37.30
16521;DHT22;8373;48.110;11.522;2023-06-04T18:28:49;23.40;37.00
16521;DHT22;8373;48.110;11.522;2023-06-04T18:31:19;23.40;37.10
16521;DHT22;8373;48.110;11.522;2023-06-04T18:33:54;23.40;37.10
16521;DHT22;8373;48.110;11.522;2023-06-04T18:36:27;23.40;37.10
16521;DHT22;8373;48.110;11.522;2023-06-04T18:38:59;23.40;37.20
16521;DHT22;8373;48.110;11.522;2023-06-04T18:41:30;23.40;37.50